sensor_id;sensor_type;location;lat;lon;timestamp;pressure;altitude;pressure_sealevel;temperature
37536;BMP180;23379;51.554;6.736;2023-07-02T00:00:02;100202.00;;;17.90
37536;BMP180;23379;51.554;6.736;2023-07-02T00:02:29;100193.00;;;17.70
37536;BMP180;23379;51.554;6.736;2023-07-02T00:04:55;100199.00;;;17.70
37536;BMP180;23379;51.554;6.736;2023-07-02T00:07:20;100188.00;;;17.80
37536;BMP180;23379;51.554;6.736;2023-07-02T00:09:46;100196.00;;;17.80
37536;BMP180;23379;51.554;6.736;2023-07-02T00:12:11;100175.00;;;17.80
37536;BMP180;23379;51.554;6.736;2023-07-02T00:14:36;100188.00;;;17.70
37536;BMP180;23379;51.554;6.736;2023-07-02T00:17:02;100180.00;;;17.60
37536;BMP180;23379;51.554;6.736;2023-07-02T00:19:29;100191.00;;;17.60
37536;BMP180;23379;51.554;6.736;2023-07-02T00:21:54;100188.00;;;17.40
37536;BMP180;23379;51.554;6.736;2023-07-02T00:24:20;100179.00;;;17.60
37536;BMP180;23379;51.554;6.736;2023-07-02T00:26:46;100181.00;;;17.80
37536;BMP180;23379;51.554;6.736;2023-07-02T00:29:11;100193.00;;;17.60
37536;BMP180;23379;51.554;6.736;2023-07-02T00:31:37;100190.00;;;17.70
37536;BMP180;23379;51.554;6.736;2023-07-02T00:34:02;100189.00;;;17.60
37536;BMP180;23379;51.554;6.736;2023-07-02T00:36:28;100186.00;;;17.40
37536;BMP180;23379;51.554;6.736;2023-07-02T00:38:54;100183.00;;;17.50
37536;BMP180;23379;51.554;6.736;2023-07-02T00:41:20;100187.00;;;17.40
37536;BMP180;23379;51.554;6.736;2023-07-02T00:43:45;100171.00;;;17.60
37536;BMP180;23379;51.554;6.736;2023-07-02T00:46:15;100185.00;;;17.40
37536;BMP180;23379;51.554;6.736;2023-07-02T00:48:52;100157.00;;;17.50
37536;BMP180;23379;51.554;6.736;2023-07-02T00:51:20;100158.00;;;17.40
37536;BMP180;23379;51.554;6.736;2023-07-02T00:53:46;100158.00;;;17.40
37536;BMP180;23379;51.554;6.736;2023-07-02T00:56:12;100147.00;;;17.30
37536;BMP180;23379;51.554;6.736;2023-07-02T00:58:41;100119.00;;;17.20
37536;BMP180;23379;51.554;6.736;2023-07-02T01:01:12;100125.00;;;17.00
37536;BMP180;23379;51.554;6.736;2023-07-02T01:03:38;100129.00;;;17.00
37536;BMP180;23379;51.554;6.736;2023-07-02T01:06:03;100151.00;;;16.90
37536;BMP180;23379;51.554;6.736;2023-07-02T01:08:29;100148.00;;;16.90
37536;BMP180;23379;51.554;6.736;2023-07-02T01:10:54;100152.00;;;16.90
37536;BMP180;23379;51.554;6.736;2023-07-02T01:13:21;100176.00;;;16.90
37536;BMP180;23379;51.554;6.736;2023-07-02T01:15:47;100175.00;;;17.00
37536;BMP180;23379;51.554;6.736;2023-07-02T01:18:14;100164.00;;;17.00
37536;BMP180;23379;51.554;6.736;2023-07-02T01:20:41;100169.00;;;16.90
37536;BMP180;23379;51.554;6.736;2023-07-02T01:23:07;100148.00;;;17.00
37536;BMP180;23379;51.554;6.736;2023-07-02T01:25:32;100180.00;;;17.00
37536;BMP180;23379;51.554;6.736;2023-07-02T01:28:01;100178.00;;;17.10
37536;BMP180;23379;51.554;6.736;2023-07-02T01:30:27;100182.00;;;16.90
37536;BMP180;23379;51.554;6.736;2023-07-02T01:32:53;100182.00;;;17.10
37536;BMP180;23379;51.554;6.736;2023-07-02T01:35:18;100189.00;;;17.00
37536;BMP180;23379;51.554;6.736;2023-07-02T01:37:44;100177.00;;;17.10
37536;BMP180;23379;51.554;6.736;2023-07-02T01:40:09;100190.00;;;17.10
37536;BMP180;23379;51.554;6.736;2023-07-02T01:42:35;100180.00;;;17.20
37536;BMP180;23379;51.554;6.736;2023-07-02T01:45:00;100179.00;;;17.20
37536;BMP180;23379;51.554;6.736;2023-07-02T01:47:26;100186.00;;;17.10
37536;BMP180;23379;51.554;6.736;2023-07-02T01:49:51;100201.00;;;17.10
37536;BMP180;23379;51.554;6.736;2023-07-02T01:52:17;100200.00;;;17.00
37536;BMP180;23379;51.554;6.736;2023-07-02T01:54:42;100182.00;;;17.00
37536;BMP180;23379;51.554;6.736;2023-07-02T01:57:08;100204.00;;;16.90
37536;BMP180;23379;51.554;6.736;2023-07-02T01:59:34;100207.00;;;16.90
37536;BMP180;23379;51.554;6.736;2023-07-02T02:01:59;100193.00;;;16.80
37536;BMP180;23379;51.554;6.736;2023-07-02T02:04:25;100204.00;;;16.90
37536;BMP180;23379;51.554;6.736;2023-07-02T02:06:50;100203.00;;;16.90
37536;BMP180;23379;51.554;6.736;2023-07-02T02:09:17;100194.00;;;16.90
37536;BMP180;23379;51.554;6.736;2023-07-02T02:11:46;100198.00;;;16.80
37536;BMP180;23379;51.554;6.736;2023-07-02T02:14:12;100189.00;;;16.80
37536;BMP180;23379;51.554;6.736;2023-07-02T02:16:37;100189.00;;;16.90
37536;BMP180;23379;51.554;6.736;2023-07-02T02:19:04;100204.00;;;17.10
37536;BMP180;23379;51.554;6.736;2023-07-02T02:21:29;100203.00;;;17.00
37536;BMP180;23379;51.554;6.736;2023-07-02T02:23:55;100197.00;;;17.10
37536;BMP180;23379;51.554;6.736;2023-07-02T02:26:21;100209.00;;;17.10
37536;BMP180;23379;51.554;6.736;2023-07-02T02:28:48;100188.00;;;16.90
37536;BMP180;23379;51.554;6.736;2023-07-02T02:31:14;100206.00;;;16.90
37536;BMP180;23379;51.554;6.736;2023-07-02T02:33:39;100207.00;;;16.90
37536;BMP180;23379;51.554;6.736;2023-07-02T02:36:05;100215.00;;;17.00
37536;BMP180;23379;51.554;6.736;2023-07-02T02:38:30;100210.00;;;16.90
37536;BMP180;23379;51.554;6.736;2023-07-02T02:40:55;100200.00;;;16.90
37536;BMP180;23379;51.554;6.736;2023-07-02T02:43:21;100214.00;;;17.10
37536;BMP180;23379;51.554;6.736;2023-07-02T02:45:47;100217.00;;;17.20
37536;BMP180;23379;51.554;6.736;2023-07-02T02:48:13;100223.00;;;17.20
37536;BMP180;23379;51.554;6.736;2023-07-02T02:50:38;100217.00;;;17.20
37536;BMP180;23379;51.554;6.736;2023-07-02T02:53:08;100218.00;;;17.20
37536;BMP180;23379;51.554;6.736;2023-07-02T02:55:33;100229.00;;;17.20
37536;BMP180;23379;51.554;6.736;2023-07-02T02:57:59;100233.00;;;17.50
37536;BMP180;23379;51.554;6.736;2023-07-02T03:00:24;100230.00;;;17.50
37536;BMP180;23379;51.554;6.736;2023-07-02T03:02:50;100228.00;;;17.30
37536;BMP180;23379;51.554;6.736;2023-07-02T03:05:15;100232.00;;;17.20
37536;BMP180;23379;51.554;6.736;2023-07-02T03:07:41;100245.00;;;16.90
37536;BMP180;23379;51.554;6.736;2023-07-02T03:10:07;100247.00;;;16.90
37536;BMP180;23379;51.554;6.736;2023-07-02T03:12:33;100239.00;;;16.90
37536;BMP180;23379;51.554;6.736;2023-07-02T03:14:58;100233.00;;;17.10
37536;BMP180;23379;51.554;6.736;2023-07-02T03:17:24;100241.00;;;17.30
37536;BMP180;23379;51.554;6.736;2023-07-02T03:19:49;100234.00;;;17.20
37536;BMP180;23379;51.554;6.736;2023-07-02T03:22:15;100258.00;;;17.50
37536;BMP180;23379;51.554;6.736;2023-07-02T03:24:40;100253.00;;;17.60
37536;BMP180;23379;51.554;6.736;2023-07-02T03:27:06;100245.00;;;17.50
37536;BMP180;23379;51.554;6.736;2023-07-02T03:29:33;100262.00;;;17.40
37536;BMP180;23379;51.554;6.736;2023-07-02T03:31:59;100256.00;;;17.30
37536;BMP180;23379;51.554;6.736;2023-07-02T03:34:25;100270.00;;;17.30
37536;BMP180;23379;51.554;6.736;2023-07-02T03:36:50;100255.00;;;17.30
37536;BMP180;23379;51.554;6.736;2023-07-02T03:39:16;100250.00;;;17.40
37536;BMP180;23379;51.554;6.736;2023-07-02T03:41:43;100268.00;;;17.20
37536;BMP180;23379;51.554;6.736;2023-07-02T03:44:08;100266.00;;;17.30
37536;BMP180;23379;51.554;6.736;2023-07-02T03:46:34;100270.00;;;17.40
37536;BMP180;23379;51.554;6.736;2023-07-02T03:49:00;100267.00;;;17.10
37536;BMP180;23379;51.554;6.736;2023-07-02T03:51:25;100271.00;;;17.20
37536;BMP180;23379;51.554;6.736;2023-07-02T03:53:50;100263.00;;;17.00
37536;BMP180;23379;51.554;6.736;2023-07-02T03:56:16;100267.00;;;17.10
37536;BMP180;23379;51.554;6.736;2023-07-02T03:58:41;100282.00;;;17.20
37536;BMP180;23379;51.554;6.736;2023-07-02T04:01:06;100280.00;;;17.00
37536;BMP180;23379;51.554;6.736;2023-07-02T04:03:32;100278.00;;;17.00
37536;BMP180;23379;51.554;6.736;2023-07-02T04:05:57;100284.00;;;17.10
37536;BMP180;23379;51.554;6.736;2023-07-02T04:08:22;100279.00;;;17.00
37536;BMP180;23379;51.554;6.736;2023-07-02T04:10:50;100274.00;;;17.10
37536;BMP180;23379;51.554;6.736;2023-07-02T04:13:15;100287.00;;;17.00
37536;BMP180;23379;51.554;6.736;2023-07-02T04:15:40;100291.00;;;17.00
37536;BMP180;23379;51.554;6.736;2023-07-02T04:18:06;100298.00;;;17.00
37536;BMP180;23379;51.554;6.736;2023-07-02T04:20:31;100297.00;;;16.90
37536;BMP180;23379;51.554;6.736;2023-07-02T04:22:56;100302.00;;;17.00
37536;BMP180;23379;51.554;6.736;2023-07-02T04:25:23;100286.00;;;17.10
37536;BMP180;23379;51.554;6.736;2023-07-02T04:27:48;100312.00;;;17.20
37536;BMP180;23379;51.554;6.736;2023-07-02T04:30:14;100292.00;;;17.00
37536;BMP180;23379;51.554;6.736;2023-07-02T04:32:40;100323.00;;;17.30
37536;BMP180;23379;51.554;6.736;2023-07-02T04:35:07;100308.00;;;17.10
37536;BMP180;23379;51.554;6.736;2023-07-02T04:37:32;100300.00;;;17.10
37536;BMP180;23379;51.554;6.736;2023-07-02T04:39:57;100310.00;;;17.30
37536;BMP180;23379;51.554;6.736;2023-07-02T04:42:23;100288.00;;;17.20
37536;BMP180;23379;51.554;6.736;2023-07-02T04:44:55;100321.00;;;17.30
37536;BMP180;23379;51.554;6.736;2023-07-02T04:47:20;100322.00;;;17.20
37536;BMP180;23379;51.554;6.736;2023-07-02T04:49:46;100318.00;;;17.30
37536;BMP180;23379;51.554;6.736;2023-07-02T04:52:11;100311.00;;;17.40
37536;BMP180;23379;51.554;6.736;2023-07-02T04:54:37;100325.00;;;17.50
37536;BMP180;23379;51.554;6.736;2023-07-02T04:57:03;100336.00;;;17.40
37536;BMP180;23379;51.554;6.736;2023-07-02T04:59:28;100345.00;;;17.50
37536;BMP180;23379;51.554;6.736;2023-07-02T05:01:53;100322.00;;;17.60
37536;BMP180;23379;51.554;6.736;2023-07-02T05:04:19;100326.00;;;17.40
37536;BMP180;23379;51.554;6.736;2023-07-02T05:06:44;100339.00;;;17.40
37536;BMP180;23379;51.554;6.736;2023-07-02T05:09:10;100332.00;;;17.40
37536;BMP180;23379;51.554;6.736;2023-07-02T05:11:35;100333.00;;;17.70
37536;BMP180;23379;51.554;6.736;2023-07-02T05:14:00;100334.00;;;17.60
37536;BMP180;23379;51.554;6.736;2023-07-02T05:16:26;100334.00;;;17.70
37536;BMP180;23379;51.554;6.736;2023-07-02T05:18:51;100345.00;;;17.70
37536;BMP180;23379;51.554;6.736;2023-07-02T05:21:20;100337.00;;;17.60
37536;BMP180;23379;51.554;6.736;2023-07-02T05:23:47;100351.00;;;17.60
37536;BMP180;23379;51.554;6.736;2023-07-02T05:26:12;100341.00;;;17.50
37536;BMP180;23379;51.554;6.736;2023-07-02T05:28:37;100347.00;;;17.60
37536;BMP180;23379;51.554;6.736;2023-07-02T05:31:03;100360.00;;;17.60
37536;BMP180;23379;51.554;6.736;2023-07-02T05:33:28;100348.00;;;17.70
37536;BMP180;23379;51.554;6.736;2023-07-02T05:35:53;100360.00;;;17.70
37536;BMP180;23379;51.554;6.736;2023-07-02T05:38:19;100350.00;;;17.90
37536;BMP180;23379;51.554;6.736;2023-07-02T05:40:45;100365.00;;;18.10
37536;BMP180;23379;51.554;6.736;2023-07-02T05:43:11;100359.00;;;18.20
37536;BMP180;23379;51.554;6.736;2023-07-02T05:45:37;100362.00;;;18.10
37536;BMP180;23379;51.554;6.736;2023-07-02T05:48:02;100369.00;;;17.90
37536;BMP180;23379;51.554;6.736;2023-07-02T05:50:28;100352.00;;;17.90
37536;BMP180;23379;51.554;6.736;2023-07-02T05:52:53;100365.00;;;17.80
37536;BMP180;23379;51.554;6.736;2023-07-02T05:55:18;100368.00;;;17.70
37536;BMP180;23379;51.554;6.736;2023-07-02T05:57:44;100365.00;;;18.10
37536;BMP180;23379;51.554;6.736;2023-07-02T06:00:10;100377.00;;;18.40
37536;BMP180;23379;51.554;6.736;2023-07-02T06:02:35;100381.00;;;19.20
37536;BMP180;23379;51.554;6.736;2023-07-02T06:05:01;100375.00;;;19.20
37536;BMP180;23379;51.554;6.736;2023-07-02T06:07:27;100370.00;;;18.70
37536;BMP180;23379;51.554;6.736;2023-07-02T06:09:52;100394.00;;;19.00
37536;BMP180;23379;51.554;6.736;2023-07-02T06:12:18;100390.00;;;18.90
37536;BMP180;23379;51.554;6.736;2023-07-02T06:14:43;100376.00;;;18.60
37536;BMP180;23379;51.554;6.736;2023-07-02T06:17:09;100388.00;;;18.40
37536;BMP180;23379;51.554;6.736;2023-07-02T06:19:36;100395.00;;;18.70
37536;BMP180;23379;51.554;6.736;2023-07-02T06:33:17;100358.00;;;19.00
37536;BMP180;23379;51.554;6.736;2023-07-02T06:35:42;100403.00;;;19.40
37536;BMP180;23379;51.554;6.736;2023-07-02T06:38:08;100395.00;;;19.50
37536;BMP180;23379;51.554;6.736;2023-07-02T06:40:33;100397.00;;;18.80
37536;BMP180;23379;51.554;6.736;2023-07-02T06:42:59;100392.00;;;19.20
37536;BMP180;23379;51.554;6.736;2023-07-02T06:45:24;100406.00;;;18.90
37536;BMP180;23379;51.554;6.736;2023-07-02T06:47:59;100368.00;;;19.20
37536;BMP180;23379;51.554;6.736;2023-07-02T06:50:24;100422.00;;;19.00
37536;BMP180;23379;51.554;6.736;2023-07-02T06:52:50;100419.00;;;19.50
37536;BMP180;23379;51.554;6.736;2023-07-02T06:55:15;100378.00;;;19.60
37536;BMP180;23379;51.554;6.736;2023-07-02T06:57:44;100415.00;;;19.60
37536;BMP180;23379;51.554;6.736;2023-07-02T07:00:14;100404.00;;;19.50
37536;BMP180;23379;51.554;6.736;2023-07-02T07:02:39;100442.00;;;19.40
37536;BMP180;23379;51.554;6.736;2023-07-02T07:05:05;100398.00;;;19.20
37536;BMP180;23379;51.554;6.736;2023-07-02T07:07:31;100452.00;;;19.10
37536;BMP180;23379;51.554;6.736;2023-07-02T07:09:57;100467.00;;;19.40
37536;BMP180;23379;51.554;6.736;2023-07-02T07:12:22;100447.00;;;19.50
37536;BMP180;23379;51.554;6.736;2023-07-02T07:14:48;100364.00;;;19.30
37536;BMP180;23379;51.554;6.736;2023-07-02T07:17:13;100405.00;;;19.70
37536;BMP180;23379;51.554;6.736;2023-07-02T07:19:39;100386.00;;;20.10
37536;BMP180;23379;51.554;6.736;2023-07-02T07:22:04;100455.00;;;20.30
37536;BMP180;23379;51.554;6.736;2023-07-02T07:24:29;100422.00;;;20.10
37536;BMP180;23379;51.554;6.736;2023-07-02T07:26:55;100444.00;;;20.10
37536;BMP180;23379;51.554;6.736;2023-07-02T07:29:21;100480.00;;;20.60
37536;BMP180;23379;51.554;6.736;2023-07-02T07:31:47;100418.00;;;20.60
37536;BMP180;23379;51.554;6.736;2023-07-02T07:34:14;100407.00;;;20.50
37536;BMP180;23379;51.554;6.736;2023-07-02T07:36:40;100459.00;;;20.70
37536;BMP180;23379;51.554;6.736;2023-07-02T07:39:05;100436.00;;;20.60
37536;BMP180;23379;51.554;6.736;2023-07-02T07:41:31;100476.00;;;20.60
37536;BMP180;23379;51.554;6.736;2023-07-02T07:43:57;100495.00;;;20.20
37536;BMP180;23379;51.554;6.736;2023-07-02T07:46:23;100393.00;;;20.00
37536;BMP180;23379;51.554;6.736;2023-07-02T07:48:48;100460.00;;;20.50
37536;BMP180;23379;51.554;6.736;2023-07-02T07:51:14;100433.00;;;20.40
37536;BMP180;23379;51.554;6.736;2023-07-02T09:53:27;100517.00;;;21.80
37536;BMP180;23379;51.554;6.736;2023-07-02T09:55:52;100540.00;;;21.80
37536;BMP180;23379;51.554;6.736;2023-07-02T09:58:18;100529.00;;;22.20
37536;BMP180;23379;51.554;6.736;2023-07-02T10:00:43;100541.00;;;22.80
37536;BMP180;23379;51.554;6.736;2023-07-02T10:05:36;100551.00;;;23.00
37536;BMP180;23379;51.554;6.736;2023-07-02T10:08:15;100544.00;;;24.20
37536;BMP180;23379;51.554;6.736;2023-07-02T10:10:43;100564.00;;;23.90
37536;BMP180;23379;51.554;6.736;2023-07-02T10:13:08;100563.00;;;23.20
37536;BMP180;23379;51.554;6.736;2023-07-02T10:15:33;100558.00;;;23.20
37536;BMP180;23379;51.554;6.736;2023-07-02T10:18:03;100564.00;;;23.50
37536;BMP180;23379;51.554;6.736;2023-07-02T10:20:37;100566.00;;;23.20
37536;BMP180;23379;51.554;6.736;2023-07-02T10:23:04;100562.00;;;23.60
37536;BMP180;23379;51.554;6.736;2023-07-02T10:25:31;100549.00;;;23.10
37536;BMP180;23379;51.554;6.736;2023-07-02T10:27:59;100577.00;;;23.10
37536;BMP180;23379;51.554;6.736;2023-07-02T10:30:35;100550.00;;;23.40
37536;BMP180;23379;51.554;6.736;2023-07-02T10:33:15;100570.00;;;24.10
37536;BMP180;23379;51.554;6.736;2023-07-02T10:35:42;100563.00;;;25.40
37536;BMP180;23379;51.554;6.736;2023-07-02T10:38:24;100577.00;;;26.20
37536;BMP180;23379;51.554;6.736;2023-07-02T10:40:57;100581.00;;;26.50
37536;BMP180;23379;51.554;6.736;2023-07-02T10:43:25;100564.00;;;24.00
37536;BMP180;23379;51.554;6.736;2023-07-02T10:45:50;100567.00;;;23.20
37536;BMP180;23379;51.554;6.736;2023-07-02T10:48:16;100559.00;;;23.20
37536;BMP180;23379;51.554;6.736;2023-07-02T10:50:41;100568.00;;;23.90
37536;BMP180;23379;51.554;6.736;2023-07-02T10:53:17;100562.00;;;24.20
37536;BMP180;23379;51.554;6.736;2023-07-02T10:55:43;100561.00;;;23.90
37536;BMP180;23379;51.554;6.736;2023-07-02T10:58:09;100558.00;;;25.40
37536;BMP180;23379;51.554;6.736;2023-07-02T11:00:50;100563.00;;;24.90
37536;BMP180;23379;51.554;6.736;2023-07-02T11:03:23;100552.00;;;24.20
37536;BMP180;23379;51.554;6.736;2023-07-02T11:05:49;100558.00;;;24.60
37536;BMP180;23379;51.554;6.736;2023-07-02T11:08:15;100566.00;;;26.50
37536;BMP180;23379;51.554;6.736;2023-07-02T11:10:41;100554.00;;;26.40
37536;BMP180;23379;51.554;6.736;2023-07-02T11:13:19;100566.00;;;27.10
37536;BMP180;23379;51.554;6.736;2023-07-02T11:15:45;100546.00;;;25.30
37536;BMP180;23379;51.554;6.736;2023-07-02T11:18:12;100575.00;;;25.40
37536;BMP180;23379;51.554;6.736;2023-07-02T11:20:39;100564.00;;;25.70
37536;BMP180;23379;51.554;6.736;2023-07-02T11:23:05;100566.00;;;24.40
37536;BMP180;23379;51.554;6.736;2023-07-02T11:25:31;100573.00;;;23.90
37536;BMP180;23379;51.554;6.736;2023-07-02T11:28:05;100572.00;;;24.40
37536;BMP180;23379;51.554;6.736;2023-07-02T11:30:31;100563.00;;;25.50
37536;BMP180;23379;51.554;6.736;2023-07-02T11:32:56;100560.00;;;25.40
37536;BMP180;23379;51.554;6.736;2023-07-02T11:35:22;100560.00;;;24.80
37536;BMP180;23379;51.554;6.736;2023-07-02T11:37:58;100583.00;;;24.10
37536;BMP180;23379;51.554;6.736;2023-07-02T11:40:23;100587.00;;;24.00
37536;BMP180;23379;51.554;6.736;2023-07-02T11:42:49;100578.00;;;23.60
37536;BMP180;23379;51.554;6.736;2023-07-02T11:45:14;100582.00;;;23.70
37536;BMP180;23379;51.554;6.736;2023-07-02T11:47:39;100578.00;;;24.70
37536;BMP180;23379;51.554;6.736;2023-07-02T11:50:06;100577.00;;;25.90
37536;BMP180;23379;51.554;6.736;2023-07-02T11:52:32;100570.00;;;27.90
37536;BMP180;23379;51.554;6.736;2023-07-02T11:54:57;100593.00;;;27.90
37536;BMP180;23379;51.554;6.736;2023-07-02T11:57:22;100592.00;;;28.30
37536;BMP180;23379;51.554;6.736;2023-07-02T11:59:48;100580.00;;;28.60
37536;BMP180;23379;51.554;6.736;2023-07-02T12:02:14;100577.00;;;28.80
37536;BMP180;23379;51.554;6.736;2023-07-02T12:04:40;100598.00;;;28.70
37536;BMP180;23379;51.554;6.736;2023-07-02T12:07:05;100568.00;;;27.50
37536;BMP180;23379;51.554;6.736;2023-07-02T12:09:30;100575.00;;;28.20
37536;BMP180;23379;51.554;6.736;2023-07-02T12:11:56;100575.00;;;27.00
37536;BMP180;23379;51.554;6.736;2023-07-02T12:14:21;100569.00;;;25.30
37536;BMP180;23379;51.554;6.736;2023-07-02T12:16:46;100593.00;;;24.40
37536;BMP180;23379;51.554;6.736;2023-07-02T12:19:12;100599.00;;;24.80
37536;BMP180;23379;51.554;6.736;2023-07-02T12:21:37;100601.00;;;25.80
37536;BMP180;23379;51.554;6.736;2023-07-02T12:24:03;100589.00;;;26.90
37536;BMP180;23379;51.554;6.736;2023-07-02T12:26:28;100591.00;;;27.20
37536;BMP180;23379;51.554;6.736;2023-07-02T12:28:54;100604.00;;;27.70
37536;BMP180;23379;51.554;6.736;2023-07-02T12:31:19;100596.00;;;28.70
37536;BMP180;23379;51.554;6.736;2023-07-02T12:33:45;100596.00;;;27.70
37536;BMP180;23379;51.554;6.736;2023-07-02T12:36:10;100603.00;;;28.30
37536;BMP180;23379;51.554;6.736;2023-07-02T12:38:35;100596.00;;;27.50
37536;BMP180;23379;51.554;6.736;2023-07-02T12:41:01;100595.00;;;25.40
37536;BMP180;23379;51.554;6.736;2023-07-02T12:43:26;100579.00;;;26.00
37536;BMP180;23379;51.554;6.736;2023-07-02T12:45:51;100594.00;;;25.70
37536;BMP180;23379;51.554;6.736;2023-07-02T12:48:17;100589.00;;;26.60
37536;BMP180;23379;51.554;6.736;2023-07-02T12:50:53;100601.00;;;26.60
37536;BMP180;23379;51.554;6.736;2023-07-02T12:53:19;100600.00;;;25.50
37536;BMP180;23379;51.554;6.736;2023-07-02T12:55:45;100600.00;;;25.00
37536;BMP180;23379;51.554;6.736;2023-07-02T12:58:10;100611.00;;;26.00
37536;BMP180;23379;51.554;6.736;2023-07-02T13:00:35;100596.00;;;27.10
37536;BMP180;23379;51.554;6.736;2023-07-02T13:03:02;100619.00;;;27.60
37536;BMP180;23379;51.554;6.736;2023-07-02T13:05:27;100597.00;;;26.00
37536;BMP180;23379;51.554;6.736;2023-07-02T13:07:52;100608.00;;;27.80
37536;BMP180;23379;51.554;6.736;2023-07-02T13:10:18;100604.00;;;27.10
37536;BMP180;23379;51.554;6.736;2023-07-02T13:12:43;100616.00;;;27.40
37536;BMP180;23379;51.554;6.736;2023-07-02T13:15:09;100609.00;;;28.10
37536;BMP180;23379;51.554;6.736;2023-07-02T13:17:34;100614.00;;;27.70
37536;BMP180;23379;51.554;6.736;2023-07-02T13:20:00;100602.00;;;26.40
37536;BMP180;23379;51.554;6.736;2023-07-02T13:22:25;100607.00;;;26.60
37536;BMP180;23379;51.554;6.736;2023-07-02T13:24:50;100601.00;;;26.40
37536;BMP180;23379;51.554;6.736;2023-07-02T13:27:16;100601.00;;;25.30
37536;BMP180;23379;51.554;6.736;2023-07-02T13:29:42;100614.00;;;25.00
37536;BMP180;23379;51.554;6.736;2023-07-02T13:32:08;100615.00;;;24.90
37536;BMP180;23379;51.554;6.736;2023-07-02T13:34:33;100612.00;;;24.10
37536;BMP180;23379;51.554;6.736;2023-07-02T13:36:59;100620.00;;;23.40
37536;BMP180;23379;51.554;6.736;2023-07-02T13:39:24;100612.00;;;23.90
37536;BMP180;23379;51.554;6.736;2023-07-02T13:41:50;100616.00;;;25.30
37536;BMP180;23379;51.554;6.736;2023-07-02T13:44:16;100602.00;;;24.30
37536;BMP180;23379;51.554;6.736;2023-07-02T13:46:43;100619.00;;;24.10
37536;BMP180;23379;51.554;6.736;2023-07-02T13:49:09;100628.00;;;24.00
37536;BMP180;23379;51.554;6.736;2023-07-02T13:51:35;100605.00;;;23.50
37536;BMP180;23379;51.554;6.736;2023-07-02T13:54:01;100607.00;;;24.10
37536;BMP180;23379;51.554;6.736;2023-07-02T13:56:26;100618.00;;;24.40
37536;BMP180;23379;51.554;6.736;2023-07-02T14:01:20;100611.00;;;23.80
37536;BMP180;23379;51.554;6.736;2023-07-02T14:03:45;100616.00;;;23.70
37536;BMP180;23379;51.554;6.736;2023-07-02T14:06:11;100617.00;;;23.80
37536;BMP180;23379;51.554;6.736;2023-07-02T14:08:36;100597.00;;;23.70
37536;BMP180;23379;51.554;6.736;2023-07-02T14:11:01;100607.00;;;24.10
37536;BMP180;23379;51.554;6.736;2023-07-02T14:13:27;100608.00;;;24.30
37536;BMP180;23379;51.554;6.736;2023-07-02T14:15:52;100607.00;;;23.30
37536;BMP180;23379;51.554;6.736;2023-07-02T14:18:17;100616.00;;;24.10
37536;BMP180;23379;51.554;6.736;2023-07-02T14:20:43;100604.00;;;24.20
37536;BMP180;23379;51.554;6.736;2023-07-02T14:23:08;100596.00;;;24.20
37536;BMP180;23379;51.554;6.736;2023-07-02T14:25:34;100603.00;;;24.50
37536;BMP180;23379;51.554;6.736;2023-07-02T14:27:59;100597.00;;;24.50
37536;BMP180;23379;51.554;6.736;2023-07-02T14:30:24;100589.00;;;23.80
37536;BMP180;23379;51.554;6.736;2023-07-02T14:32:50;100610.00;;;23.10
37536;BMP180;23379;51.554;6.736;2023-07-02T14:35:15;100590.00;;;23.20
37536;BMP180;23379;51.554;6.736;2023-07-02T14:37:40;100603.00;;;23.70
37536;BMP180;23379;51.554;6.736;2023-07-02T14:40:06;100610.00;;;23.80
37536;BMP180;23379;51.554;6.736;2023-07-02T14:42:32;100603.00;;;24.50
37536;BMP180;23379;51.554;6.736;2023-07-02T14:44:57;100616.00;;;24.50
37536;BMP180;23379;51.554;6.736;2023-07-02T14:47:22;100607.00;;;24.60
37536;BMP180;23379;51.554;6.736;2023-07-02T14:49:48;100602.00;;;23.70
37536;BMP180;23379;51.554;6.736;2023-07-02T14:52:13;100593.00;;;24.10
37536;BMP180;23379;51.554;6.736;2023-07-02T14:54:38;100597.00;;;24.30
37536;BMP180;23379;51.554;6.736;2023-07-02T14:57:04;100600.00;;;24.20
37536;BMP180;23379;51.554;6.736;2023-07-02T14:59:29;100609.00;;;24.10
37536;BMP180;23379;51.554;6.736;2023-07-02T15:01:55;100602.00;;;24.20
37536;BMP180;23379;51.554;6.736;2023-07-02T15:04:20;100582.00;;;24.00
37536;BMP180;23379;51.554;6.736;2023-07-02T15:06:45;100593.00;;;23.80
37536;BMP180;23379;51.554;6.736;2023-07-02T15:09:11;100593.00;;;23.70
37536;BMP180;23379;51.554;6.736;2023-07-02T15:11:36;100577.00;;;23.30
37536;BMP180;23379;51.554;6.736;2023-07-02T15:14:01;100594.00;;;22.70
37536;BMP180;23379;51.554;6.736;2023-07-02T15:16:27;100603.00;;;23.40
37536;BMP180;23379;51.554;6.736;2023-07-02T15:18:52;100575.00;;;23.50
37536;BMP180;23379;51.554;6.736;2023-07-02T15:21:18;100586.00;;;23.30
37536;BMP180;23379;51.554;6.736;2023-07-02T15:23:44;100589.00;;;23.30
37536;BMP180;23379;51.554;6.736;2023-07-02T15:26:09;100575.00;;;23.70
37536;BMP180;23379;51.554;6.736;2023-07-02T15:28:35;100592.00;;;23.80
37536;BMP180;23379;51.554;6.736;2023-07-02T15:31:07;100599.00;;;23.80
37536;BMP180;23379;51.554;6.736;2023-07-02T15:33:34;100594.00;;;23.50
37536;BMP180;23379;51.554;6.736;2023-07-02T15:36:00;100599.00;;;23.80
37536;BMP180;23379;51.554;6.736;2023-07-02T15:38:26;100565.00;;;23.80
37536;BMP180;23379;51.554;6.736;2023-07-02T15:41:05;100582.00;;;23.40
37536;BMP180;23379;51.554;6.736;2023-07-02T15:43:31;100577.00;;;23.40
37536;BMP180;23379;51.554;6.736;2023-07-02T15:45:57;100569.00;;;23.30
37536;BMP180;23379;51.554;6.736;2023-07-02T15:48:22;100574.00;;;23.50
37536;BMP180;23379;51.554;6.736;2023-07-02T15:50:47;100569.00;;;23.30
37536;BMP180;23379;51.554;6.736;2023-07-02T15:53:13;100583.00;;;23.30
37536;BMP180;23379;51.554;6.736;2023-07-02T15:55:38;100582.00;;;22.90
37536;BMP180;23379;51.554;6.736;2023-07-02T15:58:03;100578.00;;;22.70
37536;BMP180;23379;51.554;6.736;2023-07-02T16:00:29;100573.00;;;22.90
37536;BMP180;23379;51.554;6.736;2023-07-02T16:02:54;100572.00;;;23.10
37536;BMP180;23379;51.554;6.736;2023-07-02T16:05:21;100570.00;;;23.30